Terminal Aerodrome Forecast
Issued by NWS

Home | Current Version | Previous Version | Graphics & Text | Print | Product List | Glossary On
Versions: 1 2 3 4 5 6 7 8 9 10 11 12 13 14 15 16 17
000
FTUS43 KABR 132340
TAFMBG
TAF
KMBG 132340Z 1400/1424 34013KT P6SM OVC025
     FM140500 31008KT P6SM OVC020
     FM141200 30010KT 3SM -SN OVC010
     FM141800 34018G25KT P6SM BKN020=

USA.gov is the U.S. government's official web portal to all federal, state and local government web resources and services.